Time;durP1;ratioP1;P1;durP2;ratioP2;P2;SDS_P1;SDS_P2;PMS_P1;PMS_P2;Temp;Humidity;BMP_temperature;BMP_pressure;BME280_temperature;BME280_humidity;BME280_pressure;Samples;Min_cycle;Max_cycle;Signal;HPM_P1;HPM_P2
2022/08/07 00:00:35;;;;;;;;;14.00;14.00;;;;;25.12;46.43;99476.59;6268881;27;97029;-61
2022/08/07 00:03:42;;;;;;;;;15.25;14.25;;;;;25.08;46.67;99470.03;6289543;27;96521;-62
2022/08/07 00:06:50;;;;;;;;;13.33;13.33;;;;;25.04;46.91;99480.84;6288628;27;98388;-62
2022/08/07 00:09:55;;;;;;;;;14.00;14.00;;;;;25.00;46.88;99464.09;6267829;27;97413;-61
2022/08/07 00:13:21;;;;;;;;;14.00;14.00;;;;;25.01;46.94;99462.97;6266932;27;97514;-60
2022/08/07 00:16:28;;;;;;;;;14.00;13.20;;;;;25.00;47.11;99461.34;6267342;27;96704;-61
2022/08/07 00:19:32;;;;;;;;;14.60;14.00;;;;;24.98;47.18;99466.31;6277674;27;96507;-61
2022/08/07 00:22:55;;;;;;;;;16.40;15.00;;;;;24.89;47.42;99454.34;6291886;27;97209;-61
2022/08/07 00:26:02;;;;;;;;;14.60;13.00;;;;;24.98;47.30;99474.59;6290298;27;96917;-61
2022/08/07 00:29:28;;;;;;;;;14.33;14.33;;;;;24.97;47.50;99475.72;6281222;27;97495;-61
2022/08/07 00:32:34;;;;;;;;;14.20;13.20;;;;;24.98;47.66;99473.78;6266453;27;96922;-62
2022/08/07 00:35:37;;;;;;;;;13.60;13.00;;;;;24.98;47.74;99482.88;6289908;27;97490;-61
2022/08/07 00:38:41;;;;;;;;;16.60;15.60;;;;;25.01;47.74;99481.47;6263593;27;97424;-61
2022/08/07 00:41:53;;;;;;;;;18.00;18.00;;;;;25.01;47.58;99485.03;6265723;27;96623;-62
2022/08/07 00:45:06;;;;;;;;;15.00;14.80;;;;;25.01;47.59;99482.28;6274636;27;97131;-61
2022/08/07 00:48:18;;;;;;;;;13.00;12.75;;;;;25.01;47.48;99485.03;6273190;27;97362;-60
2022/08/07 00:51:33;;;;;;;;;16.00;16.00;;;;;25.02;47.58;99491.38;6272142;27;96412;-60
2022/08/07 00:54:57;;;;;;;;;14.40;14.00;;;;;25.02;47.84;99494.94;6283442;27;96782;-62
2022/08/07 00:58:02;;;;;;;;;13.20;13.00;;;;;25.03;47.50;99493.81;6270624;27;97418;-60
2022/08/07 01:01:07;;;;;;;;;15.00;15.00;;;;;25.03;47.48;99488.31;6266234;27;96962;-61
2022/08/07 01:04:10;;;;;;;;;15.00;15.00;;;;;25.06;47.25;99500.69;6248585;27;98076;-60
2022/08/07 01:07:28;;;;;;;;;13.40;13.40;;;;;25.06;46.97;99486.06;6281796;27;96547;-62
2022/08/07 01:10:33;;;;;;;;;16.00;15.60;;;;;25.07;46.68;99493.25;6268578;27;97523;-61
2022/08/07 01:13:39;;;;;;;;;15.00;14.00;;;;;25.06;46.50;99480.56;6269446;27;96645;-61
2022/08/07 01:16:58;;;;;;;;;16.00;15.00;;;;;25.06;46.84;99488.84;6266068;27;97435;-60
2022/08/07 01:20:08;;;;;;;;;14.25;14.00;;;;;25.05;47.22;99493.53;6268926;27;96562;-63
2022/08/07 01:23:20;;;;;;;;;16.00;14.60;;;;;25.05;46.81;99484.44;6272422;27;97387;-62
2022/08/07 01:26:43;;;;;;;;;13.00;12.80;;;;;25.03;46.67;99477.28;6262269;27;96930;-61
2022/08/07 01:29:55;;;;;;;;;16.60;16.60;;;;;25.03;46.82;99482.78;6262549;27;96966;-62
2022/08/07 01:32:59;;;;;;;;;16.00;16.00;;;;;25.03;46.89;99485.53;6246667;27;96987;-62
2022/08/07 01:36:09;;;;;;;;;14.60;14.60;;;;;24.87;47.09;99456.59;6261665;27;97421;-62
2022/08/07 01:39:20;;;;;;;;;15.00;15.00;;;;;25.03;47.17;99473.69;6270679;27;97407;-62
2022/08/07 01:42:37;;;;;;;;;14.25;14.00;;;;;25.06;47.45;99477.78;6260085;27;97405;-62
2022/08/07 01:46:02;;;;;;;;;13.20;13.00;;;;;25.06;47.23;99469.53;6257766;27;96618;-62
2022/08/07 01:49:08;;;;;;;;;14.00;13.00;;;;;25.05;47.12;99476.16;6260215;27;97303;-62
2022/08/07 01:52:14;;;;;;;;;17.00;16.00;;;;;25.04;47.12;99475.34;6257564;27;96535;-61
2022/08/07 01:55:24;;;;;;;;;14.00;12.80;;;;;25.05;47.30;99468.69;6245689;27;96841;-61
2022/08/07 01:58:34;;;;;;;;;13.60;13.60;;;;;24.84;47.19;99439.78;6261881;27;97301;-61
2022/08/07 02:01:54;;;;;;;;;14.20;14.20;;;;;25.08;47.20;99472.78;6254875;27;97555;-61
2022/08/07 02:05:12;;;;;;;;;16.00;16.00;;;;;25.09;47.14;99475.25;6242585;27;97445;-59
2022/08/07 02:08:40;;;;;;;;;16.00;16.00;;;;;25.11;47.43;99474.94;6238177;27;97140;-61
2022/08/07 02:11:50;;;;;;;;;12.00;12.00;;;;;25.13;47.59;99464.41;6257801;27;96979;-60
2022/08/07 02:15:12;;;;;;;;;17.00;17.00;;;;;25.12;47.39;99468.31;6254997;27;96812;-61
2022/08/07 02:18:19;;;;;;;;;17.00;17.00;;;;;25.11;47.01;99469.44;6245986;27;96889;-60
2022/08/07 02:21:24;;;;;;;;;19.00;19.00;;;;;25.08;47.21;99470.84;6238578;27;97178;-60
2022/08/07 02:24:29;;;;;;;;;18.80;18.00;;;;;25.06;47.43;99475.03;6242104;27;97643;-61
2022/08/07 02:27:35;;;;;;;;;19.00;18.60;;;;;25.04;47.39;99478.09;6240159;27;96829;-59
2022/08/07 02:30:44;;;;;;;;;18.00;18.00;;;;;25.01;47.24;99467.69;6254339;27;96950;-60
2022/08/07 02:33:53;;;;;;;;;17.00;16.00;;;;;25.01;47.53;99471.25;6246032;27;96876;-61
2022/08/07 02:37:13;;;;;;;;;16.75;16.75;;;;;25.00;47.55;99482.59;6261477;27;97053;-61
2022/08/07 02:40:18;;;;;;;;;16.00;15.00;;;;;25.01;47.60;99481.47;6253700;27;97012;-59
2022/08/07 02:43:45;;;;;;;;;17.80;17.20;;;;;25.01;47.31;99470.44;6261924;27;98015;-59
2022/08/07 02:46:54;;;;;;;;;5.50;5.00;;;;;25.01;47.29;99473.19;6252277;27;96680;-60
2022/08/07 02:49:59;;;;;;;;;16.00;16.00;;;;;25.00;47.23;99477.88;6241140;27;97434;-60
2022/08/07 02:53:12;;;;;;;;;15.75;15.75;;;;;25.00;47.33;99483.41;6262302;27;96899;-60
2022/08/07 02:56:18;;;;;;;;;17.00;17.00;;;;;25.01;47.34;99482.28;6238677;27;97554;-61
2022/08/07 02:59:27;;;;;;;;;19.40;18.40;;;;;24.93;47.32;99482.97;6238476;28;96450;-59
2022/08/07 03:02:37;;;;;;;;;17.20;16.80;;;;;24.98;47.38;99480.13;6257604;27;97149;-58
2022/08/07 03:05:58;;;;;;;;;14.80;14.80;;;;;24.95;47.49;99482.66;6259879;27;96758;-60
2022/08/07 03:09:03;;;;;;;;;16.00;16.00;;;;;24.92;47.54;99481.31;6261806;27;96641;-60
2022/08/07 03:12:09;;;;;;;;;16.60;16.60;;;;;24.89;47.44;99481.94;6261875;27;96994;-61
2022/08/07 03:15:36;;;;;;;;;16.40;16.20;;;;;24.90;47.79;99486.34;6251834;27;98059;-60
2022/08/07 03:18:59;;;;;;;;;15.60;15.60;;;;;24.91;47.97;99482.47;6260578;27;96546;-61
2022/08/07 03:22:05;;;;;;;;;18.00;17.40;;;;;24.92;47.97;99483.28;6261764;27;97526;-60
2022/08/07 03:25:10;;;;;;;;;17.00;16.00;;;;;24.95;47.92;99485.44;6261240;27;96788;-60
2022/08/07 03:28:22;;;;;;;;;19.00;19.00;;;;;24.95;47.97;99488.19;6253031;27;96510;-60
2022/08/07 03:31:45;;;;;;;;;17.25;16.00;;;;;24.95;47.83;99491.75;6252865;27;97617;-59
2022/08/07 03:34:57;;;;;;;;;18.00;17.40;;;;;24.97;48.07;99492.25;6260927;27;96759;-59
2022/08/07 03:38:21;;;;;;;;;19.00;17.00;;;;;24.99;48.14;99487.28;6259917;27;97474;-61
2022/08/07 03:41:37;;;;;;;;;18.00;17.20;;;;;25.01;47.96;99484.22;6255507;27;97445;-60
2022/08/07 03:44:51;;;;;;;;;19.50;17.50;;;;;25.03;47.81;99498.53;6259371;27;98161;-59
2022/08/07 03:48:03;;;;;;;;;19.00;19.00;;;;;25.03;47.82;99493.00;6269672;27;96450;-60
2022/08/07 03:51:13;;;;;;;;;20.00;20.00;;;;;25.05;47.98;99496.28;6266081;27;96830;-60
2022/08/07 03:54:17;;;;;;;;;18.20;17.80;;;;;25.05;47.87;99498.22;6248952;27;97292;-59
2022/08/07 03:57:44;;;;;;;;;19.00;19.00;;;;;25.08;47.93;99489.34;6255934;27;97256;-59
2022/08/07 04:01:13;;;;;;;;;17.60;17.60;;;;;25.09;47.76;99493.75;6244280;27;96957;-60
2022/08/07 04:04:21;;;;;;;;;18.00;18.00;;;;;25.11;47.85;99494.25;6266946;27;97409;-59
2022/08/07 04:07:30;;;;;;;;;18.00;18.00;;;;;25.11;47.65;99499.78;6267096;27;96653;-59
2022/08/07 04:10:52;;;;;;;;;17.33;16.33;;;;;25.11;47.52;99503.38;6268801;27;97095;-59
2022/08/07 04:14:18;;;;;;;;;18.80;18.20;;;;;25.13;47.37;99497.53;6257029;27;98568;-60
2022/08/07 04:17:43;;;;;;;;;17.20;17.00;;;;;25.11;47.39;99502.53;6254695;27;96531;-59
2022/08/07 04:21:07;;;;;;;;;17.00;17.00;;;;;25.10;47.62;99498.97;6262320;27;96597;-58
2022/08/07 04:24:12;;;;;;;;;13.00;12.40;;;;;24.82;47.84;99459.41;6259307;27;96874;-59
2022/08/07 04:27:37;;;;;;;;;17.00;16.00;;;;;25.11;47.62;99499.78;6258551;27;96545;-61
2022/08/07 04:30:49;;;;;;;;;18.40;17.80;;;;;25.15;47.63;99507.16;6259157;27;96831;-59
2022/08/07 04:34:07;;;;;;;;;19.25;19.25;;;;;25.19;47.87;99513.69;6249249;27;97180;-60
2022/08/07 04:37:22;;;;;;;;;15.50;15.50;;;;;25.18;47.63;99519.50;6268703;27;96601;-64
2022/08/07 04:40:29;;;;;;;;;16.80;16.80;;;;;25.20;48.03;99518.09;6268822;27;97467;-60
2022/08/07 04:43:37;;;;;;;;;19.40;18.40;;;;;25.22;48.00;99526.88;6266645;27;98025;-61
2022/08/07 04:47:09;;;;;;;;;17.00;17.00;;;;;25.21;47.83;99522.50;6269234;27;96789;-61
2022/08/07 04:50:39;;;;;;;;;19.00;19.00;;;;;25.17;47.73;99515.94;6263933;27;96886;-60
2022/08/07 04:53:59;;;;;;;;;16.75;16.75;;;;;25.14;47.56;99519.31;6258056;27;97069;-59
2022/08/07 04:57:20;;;;;;;;;18.60;17.80;;;;;25.09;47.74;99508.34;6265096;27;97044;-60
2022/08/07 05:00:50;;;;;;;;;17.50;17.50;;;;;25.22;48.33;99526.06;6272830;27;96603;-59
2022/08/07 05:04:06;;;;;;;;;20.00;19.20;;;;;25.23;47.80;99535.97;6269412;27;96719;-61
2022/08/07 05:07:25;;;;;;;;;16.00;16.00;;;;;25.23;47.77;99534.06;6246935;27;97757;-58
2022/08/07 05:10:47;;;;;;;;;19.00;19.00;;;;;25.23;47.85;99542.31;6245921;27;96974;-61
2022/08/07 05:13:55;;;;;;;;;17.00;17.00;;;;;25.25;47.95;99536.50;6261382;27;96648;-60
2022/08/07 05:17:20;;;;;;;;;16.40;16.40;;;;;25.28;47.73;99541.41;6245703;27;97016;-60
2022/08/07 05:20:47;;;;;;;;;20.00;20.00;;;;;25.30;47.48;99540.00;6263027;27;98372;-61
2022/08/07 05:23:57;;;;;;;;;17.50;17.50;;;;;25.31;47.47;99538.91;6247134;27;98291;-57
2022/08/07 05:27:05;;;;;;;;;17.00;16.80;;;;;25.15;47.76;99509.91;6248545;27;96961;-59
2022/08/07 05:30:29;;;;;;;;;15.67;15.00;;;;;25.34;47.46;99535.50;6246984;27;96664;-60
2022/08/07 05:33:38;;;;;;;;;18.60;18.60;;;;;25.33;47.34;99544.09;6266531;27;97069;-59
2022/08/07 05:36:55;;;;;;;;;15.40;15.40;;;;;25.29;47.38;99530.09;6247072;27;96828;-59
2022/08/07 05:40:16;;;;;;;;;16.00;15.00;;;;;25.38;47.21;99547.59;6246449;27;96513;-59
2022/08/07 05:43:25;;;;;;;;;15.80;15.20;;;;;25.41;47.08;99549.72;6246148;27;97190;-60
2022/08/07 05:46:50;;;;;;;;;20.80;20.20;;;;;25.44;46.88;99548.31;6246687;27;97493;-67
2022/08/07 05:49:59;;;;;;;;;9.75;9.50;;;;;25.37;46.81;99554.22;6254398;27;97103;-58
2022/08/07 05:53:04;;;;;;;;;15.75;15.75;;;;;25.32;46.77;99556.25;6246928;27;97361;-62
2022/08/07 05:56:29;;;;;;;;;14.00;13.00;;;;;25.27;46.93;99554.41;6246835;27;97388;-61
2022/08/07 05:59:39;;;;;;;;;17.40;17.40;;;;;25.21;47.03;99558.38;6262893;27;96633;-56
2022/08/07 06:03:06;;;;;;;;;13.50;13.50;;;;;25.22;47.12;99550.91;6288831;27;97408;-60
2022/08/07 06:06:13;;;;;;;;;13.00;13.00;;;;;25.25;47.19;99555.84;6269858;27;97571;-60
2022/08/07 06:09:22;;;;;;;;;12.00;12.00;;;;;25.28;47.25;99555.22;6268012;27;96721;-60
2022/08/07 06:12:46;;;;;;;;;12.75;11.75;;;;;25.25;46.88;99547.56;6262887;27;96505;-59
2022/08/07 06:15:54;;;;;;;;;16.00;15.00;;;;;25.23;46.96;99552.53;6246210;27;96976;-62
2022/08/07 06:19:02;;;;;;;;;15.00;14.00;;;;;25.21;46.94;99554.81;6263286;27;96352;-62
2022/08/07 06:22:11;;;;;;;;;17.60;17.00;;;;;25.20;46.84;99562.25;6273283;27;97368;-60
2022/08/07 06:25:37;;;;;;;;;17.20;17.20;;;;;25.20;46.93;99553.97;6248782;27;96535;-60
2022/08/07 06:28:49;;;;;;;;;14.60;13.60;;;;;25.22;47.04;99559.19;6270990;27;97431;-59
2022/08/07 06:31:57;;;;;;;;;13.50;13.00;;;;;25.22;47.21;99556.41;6262543;27;97991;-61
2022/08/07 06:35:04;;;;;;;;;15.00;15.00;;;;;25.27;47.09;99561.84;6245986;27;97343;-60
2022/08/07 06:38:20;;;;;;;;;14.00;13.67;;;;;25.25;46.90;99564.94;6276199;27;97043;-61
2022/08/07 06:41:31;;;;;;;;;16.00;14.00;;;;;25.27;47.27;99570.13;6269003;27;97148;-58
2022/08/07 06:44:56;;;;;;;;;14.00;14.00;;;;;25.36;47.09;99563.63;6270633;27;97388;-60
2022/08/07 06:48:02;;;;;;;;;14.60;14.00;;;;;25.48;46.84;99565.91;6269459;27;97070;-60
2022/08/07 06:51:19;;;;;;;;;15.00;15.00;;;;;25.27;46.49;99537.00;6260437;27;97421;-60
2022/08/07 06:54:40;;;;;;;;;15.50;15.00;;;;;25.52;46.25;99569.69;6245240;27;96899;-65
2022/08/07 06:58:13;;;;;;;;;14.20;13.20;;;;;25.55;46.14;99573.84;6268332;27;97508;-59
2022/08/07 07:01:33;;;;;;;;;13.00;12.00;;;;;25.60;46.60;99562.72;6246883;27;97513;-54
2022/08/07 07:04:52;;;;;;;;;16.60;16.00;;;;;25.66;45.90;99565.06;6281906;27;96474;-54
2022/08/07 07:07:57;;;;;;;;;14.00;14.00;;;;;25.72;45.61;99560.25;6288551;27;96453;-61
2022/08/07 07:11:09;;;;;;;;;14.60;14.40;;;;;25.70;45.43;99573.56;6269410;27;97087;-61
2022/08/07 07:14:37;;;;;;;;;12.60;12.60;;;;;25.73;45.58;99571.00;6287192;27;96732;-59
2022/08/07 07:17:49;;;;;;;;;18.40;17.60;;;;;25.74;45.19;99569.88;6285783;27;97300;-61
2022/08/07 07:21:01;;;;;;;;;15.00;15.00;;;;;25.76;44.78;99561.28;6274617;27;97485;-63
2022/08/07 07:24:07;;;;;;;;;14.50;14.50;;;;;25.79;45.03;99572.56;6267556;27;97006;-61
2022/08/07 07:27:16;;;;;;;;;15.00;15.00;;;;;25.83;45.22;99565.28;6288145;27;96486;-62
2022/08/07 07:30:25;;;;;;;;;17.00;16.00;;;;;25.89;45.20;99563.25;6287882;27;96875;-61
2022/08/07 07:33:43;;;;;;;;;11.40;11.40;;;;;26.04;45.07;99571.25;6286058;27;97481;-60
2022/08/07 07:37:00;;;;;;;;;18.00;18.00;;;;;26.13;44.40;99571.34;6286861;27;97926;-59
2022/08/07 07:40:24;;;;;;;;;15.50;15.00;;;;;26.18;44.09;99562.94;6287911;27;96699;-55
2022/08/07 07:43:32;;;;;;;;;15.60;15.00;;;;;26.26;44.26;99562.25;6286934;27;96552;-61
2022/08/07 07:46:59;;;;;;;;;13.00;12.25;;;;;26.41;44.11;99572.16;6277164;27;97723;-61
2022/08/07 07:50:24;;;;;;;;;14.50;14.00;;;;;26.50;43.50;99573.06;6287707;27;97018;-62
2022/08/07 07:53:44;;;;;;;;;14.25;13.75;;;;;26.63;43.68;99566.72;6286191;27;96963;-58
2022/08/07 07:56:57;;;;;;;;;14.00;14.00;;;;;26.74;42.72;99574.44;6273959;27;97351;-63
2022/08/07 08:00:01;;;;;;;;;13.00;12.00;;;;;26.73;42.59;99553.44;6262318;27;96638;-60
2022/08/07 08:03:16;;;;;;;;;15.00;14.00;;;;;26.91;42.02;99576.59;6262667;27;96780;-61
2022/08/07 08:06:43;;;;;;;;;11.00;10.00;;;;;26.97;41.61;99577.28;6262097;27;97339;-60
2022/08/07 08:09:56;;;;;;;;;11.00;11.00;;;;;27.08;40.31;99576.72;6261957;27;96890;-60
2022/08/07 08:13:10;;;;;;;;;12.00;12.00;;;;;27.17;41.13;99579.56;6288526;27;97718;-58
2022/08/07 08:16:20;;;;;;;;;14.00;13.40;;;;;27.25;40.51;99569.69;6297749;27;97448;-61
2022/08/07 08:19:29;;;;;;;;;13.00;12.60;;;;;27.37;40.34;99575.44;6278223;27;97531;-59
2022/08/07 08:29:56;;;;;;;;;10.00;9.60;;;;;27.74;39.08;99582.56;6288082;27;96650;-59
2022/08/07 08:33:05;;;;;;;;;12.00;12.00;;;;;27.90;38.45;99583.78;6291614;27;97072;-59
2022/08/07 08:36:20;;;;;;;;;13.40;13.40;;;;;27.94;37.97;99582.84;6276531;27;96521;-59
2022/08/07 08:39:34;;;;;;;;;13.00;13.00;;;;;28.05;38.10;99574.25;6282517;27;96729;-56
2022/08/07 08:43:09;;;;;;;;;10.00;9.40;;;;;28.11;37.34;99578.47;6291267;27;96993;-60
2022/08/07 08:46:20;;;;;;;;;11.25;10.25;;;;;28.18;37.06;99588.00;6276492;27;97005;-59
2022/08/07 08:49:36;;;;;;;;;10.75;10.75;;;;;28.30;37.00;99585.44;6272992;27;97550;-60
2022/08/07 08:53:06;;;;;;;;;10.60;10.60;;;;;28.55;37.60;99586.63;6278630;27;97458;-60
2022/08/07 08:56:14;;;;;;;;;9.25;9.00;;;;;28.90;36.96;99583.94;6283178;27;97436;-61
2022/08/07 08:59:31;;;;;;;;;6.00;5.00;;;;;29.32;36.44;99574.00;6278384;27;97509;-61
2022/08/07 09:02:58;;;;;;;;;8.25;8.25;;;;;29.58;34.71;99575.56;6275095;27;96632;-62
2022/08/07 09:06:09;;;;;;;;;9.00;8.00;;;;;29.61;34.83;99554.66;6278005;27;96786;-61
2022/08/07 09:09:34;;;;;;;;;7.00;7.00;;;;;29.80;33.67;99574.53;6273517;27;96827;-61
2022/08/07 09:12:50;;;;;;;;;9.00;8.60;;;;;30.16;33.38;99579.63;6279501;27;97288;-59
2022/08/07 09:16:03;;;;;;;;;6.80;6.80;;;;;30.19;32.63;99572.59;6268989;27;97994;-61
2022/08/07 09:19:41;;;;;;;;;7.00;7.00;;;;;30.42;33.73;99569.19;6277822;27;96445;-60
2022/08/07 09:23:06;;;;;;;;;6.80;6.80;;;;;30.70;32.36;99563.13;6291185;27;96880;-59
2022/08/07 09:26:39;;;;;;;;;7.00;7.00;;;;;30.70;32.72;99540.88;6289622;27;96540;-60
2022/08/07 09:29:58;;;;;;;;;6.00;6.00;;;;;30.96;31.77;99559.00;6289213;27;98938;-60
2022/08/07 09:33:31;;;;;;;;;8.00;7.60;;;;;30.98;31.43;99556.69;6265712;27;96495;-61
2022/08/07 09:37:01;;;;;;;;;7.75;7.00;;;;;30.94;31.74;99561.31;6272119;27;97799;-60
2022/08/07 09:40:14;;;;;;;;;7.00;6.40;;;;;30.92;32.42;99558.06;6291087;27;96792;-60
2022/08/07 09:43:33;;;;;;;;;7.00;7.00;;;;;30.97;32.25;99554.25;6290591;27;97058;-64
2022/08/07 09:47:07;;;;;;;;;8.25;7.50;;;;;30.99;31.86;99546.34;6288651;27;96853;-62
2022/08/07 09:50:48;;;;;;;;;7.80;7.80;;;;;30.75;31.11;99518.41;6290649;27;96917;-57
2022/08/07 09:53:58;;;;;;;;;9.40;9.40;;;;;30.74;30.79;99539.06;6290373;27;96370;-59
2022/08/07 09:57:28;;;;;;;;;7.50;7.50;;;;;30.70;31.66;99544.47;6287968;27;97546;-61
2022/08/07 10:00:50;;;;;;;;;8.80;8.80;;;;;30.70;31.83;99533.34;6267277;27;97372;-62
2022/08/07 10:04:14;;;;;;;;;6.60;6.40;;;;;30.55;31.14;99533.94;6282733;27;97291;-62
2022/08/07 10:07:57;;;;;;;;;7.40;7.40;;;;;30.47;31.39;99529.25;6288016;27;96976;-59
2022/08/07 10:11:10;;;;;;;;;7.60;7.60;;;;;30.44;31.14;99524.34;6269330;27;97016;-61
2022/08/07 10:15:10;;;;;;;;;6.00;6.00;;;;;30.57;31.54;99523.28;6285303;27;96739;-59
2022/08/07 10:18:32;;;;;;;;;6.00;6.00;;;;;30.54;30.98;99502.50;6211050;28;96979;-59
2022/08/07 10:21:45;;;;;;;;;9.00;8.00;;;;;30.82;31.04;99513.94;6218606;28;97486;-62
2022/08/07 10:25:24;;;;;;;;;5.00;5.00;;;;;31.11;32.10;99515.81;6241854;27;97011;-59
2022/08/07 10:28:58;;;;;;;;;6.80;6.80;;;;;31.42;29.79;99510.56;6235778;28;96952;-59
2022/08/07 10:32:24;;;;;;;;;7.00;7.00;;;;;31.77;30.41;99505.41;6235302;28;98225;-61
2022/08/07 10:36:04;;;;;;;;;6.00;6.00;;;;;32.13;29.66;99507.44;6216046;28;96829;-60
2022/08/07 10:39:29;;;;;;;;;5.80;5.80;;;;;32.28;29.26;99505.09;6215989;28;96707;-59
2022/08/07 10:43:01;;;;;;;;;4.50;4.50;;;;;32.36;28.39;99506.94;6232951;28;97555;-58
2022/08/07 10:46:13;;;;;;;;;5.00;5.00;;;;;32.28;28.66;99499.53;6214247;28;96748;-62
2022/08/07 10:49:26;;;;;;;;;3.60;3.60;;;;;32.31;28.86;99501.59;6213841;28;97583;-60
2022/08/07 10:52:59;;;;;;;;;8.00;8.00;;;;;32.27;28.34;99487.53;6223255;28;96680;-59
2022/08/07 10:56:23;;;;;;;;;6.20;6.20;;;;;32.35;29.19;99483.00;6286368;27;96937;-58
2022/08/07 10:59:47;;;;;;;;;5.00;5.00;;;;;32.16;26.82;99484.41;6265734;27;96515;-60
2022/08/07 11:02:59;;;;;;;;;7.00;7.00;;;;;32.02;27.42;99481.13;6272832;27;97749;-60
2022/08/07 11:06:11;;;;;;;;;6.75;6.75;;;;;31.91;28.03;99481.97;6278901;27;97531;-56
2022/08/07 11:09:26;;;;;;;;;8.00;8.00;;;;;31.57;28.47;99450.56;6280861;27;97502;-59
2022/08/07 11:13:06;;;;;;;;;7.25;7.25;;;;;31.65;29.24;99471.16;6262693;27;97053;-60
2022/08/07 11:16:36;;;;;;;;;8.00;7.00;;;;;31.65;28.60;99469.19;6263344;27;97818;-62
2022/08/07 11:19:50;;;;;;;;;6.40;6.40;;;;;31.70;28.34;99468.16;6263125;27;96438;-60
2022/08/07 11:23:01;;;;;;;;;6.00;6.00;;;;;31.72;28.05;99471.38;6267230;27;97373;-61
2022/08/07 11:26:11;;;;;;;;;6.00;6.00;;;;;31.67;28.40;99464.06;6280582;27;97100;-60
2022/08/07 11:29:23;;;;;;;;;6.00;6.00;;;;;31.63;28.72;99470.69;6274308;27;97518;-57
2022/08/07 11:32:54;;;;;;;;;7.00;7.00;;;;;31.48;28.32;99463.78;6264593;27;98355;-59
2022/08/07 11:36:11;;;;;;;;;8.00;8.00;;;;;31.37;28.72;99462.63;6267747;27;97053;-59
2022/08/07 11:39:48;;;;;;;;;7.40;7.40;;;;;31.32;28.67;99463.66;6276516;27;97065;-59
2022/08/07 11:43:11;;;;;;;;;7.00;7.00;;;;;31.09;28.94;99430.97;6261992;27;97473;-60
2022/08/07 11:46:35;;;;;;;;;8.00;7.25;;;;;31.12;28.74;99458.97;6269423;27;96555;-60
2022/08/07 11:50:07;;;;;;;;;10.60;10.40;;;;;30.90;29.40;99453.75;6287598;27;97175;-64
2022/08/07 11:53:40;;;;;;;;;9.00;9.00;;;;;30.62;30.05;99447.13;6267888;27;97029;-60
2022/08/07 11:57:17;;;;;;;;;6.00;6.00;;;;;30.45;29.98;99446.06;6265982;27;97687;-61
2022/08/07 12:00:31;;;;;;;;;8.00;8.00;;;;;30.44;30.11;99454.78;6270887;27;96405;-60
2022/08/07 12:03:57;;;;;;;;;7.00;7.00;;;;;30.42;30.70;99438.41;6288942;27;96635;-58
2022/08/07 12:07:09;;;;;;;;;10.00;10.00;;;;;30.40;30.21;99451.03;6296619;27;96317;-60
2022/08/07 12:10:37;;;;;;;;;7.00;7.00;;;;;30.32;29.75;99440.78;6296166;27;96421;-60
2022/08/07 12:13:50;;;;;;;;;9.20;9.20;;;;;30.21;29.45;99437.59;6277634;27;97450;-60
2022/08/07 12:17:00;;;;;;;;;10.00;10.00;;;;;30.17;29.89;99427.47;6251974;27;97022;-61
2022/08/07 12:20:12;;;;;;;;;7.33;7.33;;;;;30.17;29.88;99430.25;6270925;27;98164;-60
2022/08/07 12:23:46;;;;;;;;;8.00;8.00;;;;;30.20;30.45;99437.97;6287120;27;97812;-60
2022/08/07 12:27:14;;;;;;;;;8.00;8.00;;;;;30.19;29.28;99426.00;6296646;27;97396;-61
2022/08/07 12:30:19;;;;;;;;;6.00;6.00;;;;;30.17;30.27;99431.09;6294052;27;96310;-56
2022/08/07 12:33:31;;;;;;;;;6.00;5.00;;;;;30.24;30.85;99436.13;6295819;27;97398;-59
2022/08/07 12:36:57;;;;;;;;;5.60;5.00;;;;;30.32;29.95;99429.66;6294289;27;96841;-60
2022/08/07 12:40:03;;;;;;;;;5.00;5.00;;;;;30.41;30.08;99422.88;6296058;27;96403;-61
2022/08/07 12:43:13;;;;;;;;;5.00;5.00;;;;;30.54;29.89;99421.81;6295579;27;96922;-59
2022/08/07 12:46:50;;;;;;;;;5.50;5.50;;;;;30.72;30.31;99419.69;6277635;27;96825;-60
2022/08/07 12:50:03;;;;;;;;;7.60;7.00;;;;;30.85;29.15;99410.22;6270485;27;96783;-60
2022/08/07 12:53:35;;;;;;;;;3.00;3.00;;;;;30.96;29.07;99405.03;6269464;27;97097;-61
2022/08/07 12:57:02;;;;;;;;;5.00;5.00;;;;;31.13;29.08;99416.00;6290443;27;97492;-61
2022/08/07 13:00:13;;;;;;;;;4.60;4.00;;;;;31.22;28.17;99402.81;6293463;27;97912;-61
2022/08/07 13:04:03;;;;;;;;;4.60;4.60;;;;;31.26;28.55;99402.94;6285117;27;97497;-61
2022/08/07 13:07:37;;;;;;;;;4.40;4.00;;;;;31.37;28.86;99409.69;6270149;27;97483;-62
2022/08/07 13:11:14;;;;;;;;;6.00;6.00;;;;;31.42;27.99;99401.09;6268917;27;97330;-60
2022/08/07 13:14:31;;;;;;;;;2.00;2.00;;;;;31.56;28.48;99404.38;6266284;27;96951;-60
2022/08/07 13:18:13;;;;;;;;;7.00;6.40;;;;;31.68;27.35;99401.56;6265098;27;97013;-61
2022/08/07 13:21:33;;;;;;;;;5.00;5.00;;;;;31.74;27.08;99391.00;6273107;27;96480;-61
2022/08/07 13:24:58;;;;;;;;;5.40;5.40;;;;;31.63;26.87;99393.44;6275917;27;97366;-61
2022/08/07 13:28:04;;;;;;;;;6.00;6.00;;;;;31.57;27.11;99403.19;6277564;27;98028;-61
2022/08/07 13:31:30;;;;;;;;;5.00;5.00;;;;;31.61;27.47;99387.41;6275788;27;97452;-61
2022/08/07 13:34:55;;;;;;;;;6.00;6.00;;;;;31.71;26.94;99391.72;6277334;27;97036;-57
2022/08/07 13:38:13;;;;;;;;;4.00;3.00;;;;;31.78;27.82;99384.38;6279621;27;97596;-59
2022/08/07 13:41:32;;;;;;;;;6.00;6.00;;;;;31.84;25.87;99379.38;6262907;27;97465;-58
2022/08/07 13:44:39;;;;;;;;;5.40;5.40;;;;;31.88;26.68;99373.91;6259883;27;96953;-63
2022/08/07 13:47:51;;;;;;;;;5.00;4.80;;;;;31.87;26.34;99369.47;6277209;27;97017;-62
2022/08/07 13:51:13;;;;;;;;;4.00;4.00;;;;;31.78;26.93;99367.66;6267860;27;98354;-58
2022/08/07 13:54:40;;;;;;;;;7.00;6.33;;;;;31.66;26.67;99356.53;6288651;27;97205;-61
2022/08/07 13:58:59;;;;;;;;;5.80;5.80;;;;;31.63;27.55;99357.19;6286778;27;96854;-60
2022/08/07 14:01:33;;;;;;;;;7.00;7.00;;;;;31.70;27.30;99354.66;6263217;27;96985;-60
2022/08/07 14:05:02;;;;;;;;;8.50;8.50;;;;;31.67;27.00;99362.88;6271890;27;96490;-58
2022/08/07 14:08:08;;;;;;;;;8.00;7.60;;;;;31.55;26.39;99358.13;6286397;27;96570;-59
2022/08/07 14:11:15;;;;;;;;;7.00;7.00;;;;;31.48;27.16;99355.09;6270778;27;96553;-56
2022/08/07 14:14:29;;;;;;;;;7.40;7.40;;;;;31.44;27.01;99347.78;6288642;27;96919;-56
2022/08/07 14:17:38;;;;;;;;;6.00;5.80;;;;;31.45;27.21;99341.06;6289144;27;97463;-58
2022/08/07 14:21:09;;;;;;;;;9.00;8.00;;;;;31.58;27.37;99337.13;6265834;27;96680;-60
2022/08/07 14:24:37;;;;;;;;;3.00;3.00;;;;;31.67;26.33;99333.03;6264846;27;96624;-59
2022/08/07 14:27:47;;;;;;;;;4.00;4.00;;;;;31.67;26.94;99327.47;6264530;27;97624;-60
2022/08/07 14:31:11;;;;;;;;;7.00;7.00;;;;;31.70;26.66;99334.31;6278120;27;96441;-59
2022/08/07 14:34:19;;;;;;;;;6.50;6.50;;;;;31.73;26.05;99325.25;6289579;27;97524;-60
2022/08/07 14:37:31;;;;;;;;;6.00;6.00;;;;;31.69;25.67;99338.28;6287994;27;97194;-61
2022/08/07 14:40:44;;;;;;;;;5.00;5.00;;;;;31.64;26.41;99327.34;6277171;27;96606;-61
2022/08/07 14:43:54;;;;;;;;;5.60;5.60;;;;;31.54;26.40;99325.84;6263788;27;96754;-59
2022/08/07 14:47:13;;;;;;;;;5.00;5.00;;;;;31.42;27.28;99326.63;6283838;27;96948;-58
2022/08/07 14:50:22;;;;;;;;;5.80;5.80;;;;;31.30;26.73;99318.31;6278983;27;96989;-59
2022/08/07 14:53:32;;;;;;;;;5.00;5.00;;;;;31.21;27.02;99325.97;6264706;27;96914;-58
2022/08/07 14:56:57;;;;;;;;;6.00;6.00;;;;;31.13;27.72;99326.09;6275180;27;96955;-59
2022/08/07 15:00:07;;;;;;;;;5.00;5.00;;;;;31.13;28.40;99314.94;6275784;27;98019;-57
2022/08/07 15:03:12;;;;;;;;;5.00;5.00;;;;;31.15;27.27;99307.03;6274395;27;96969;-59
2022/08/07 15:06:24;;;;;;;;;4.60;4.60;;;;;31.13;26.74;99310.16;6284736;27;97374;-61
2022/08/07 15:09:43;;;;;;;;;5.50;5.50;;;;;31.13;27.81;99309.38;6278839;27;98798;-63
2022/08/07 15:13:06;;;;;;;;;4.00;4.00;;;;;31.07;28.29;99306.00;6286339;27;96990;-58
2022/08/07 15:16:15;;;;;;;;;5.50;5.50;;;;;31.05;27.63;99307.50;6285714;27;97461;-61
2022/08/07 15:19:38;;;;;;;;;6.00;5.40;;;;;30.98;28.08;99297.69;6270300;27;97936;-62
2022/08/07 15:23:02;;;;;;;;;5.75;5.75;;;;;30.96;27.88;99302.81;6283873;27;97415;-60